Time;durP1;ratioP1;P1;durP2;ratioP2;P2;SDS_P1;SDS_P2;PMS_P1;PMS_P2;Temp;Humidity;BMP_temperature;BMP_pressure;BME280_temperature;BME280_humidity;BME280_pressure;Samples;Min_cycle;Max_cycle;Signal;HPM_P1;HPM_P2
2023/03/15 00:02:00;;;;;;;2.20;0.80;;;2.10;99.90;;;;;;4953981;28;20162;-64
2023/03/15 00:04:27;;;;;;;3.60;0.68;;;2.10;99.90;;;;;;4956778;28;20180;-63
2023/03/15 00:06:54;;;;;;;1.55;0.70;;;2.10;99.90;;;;;;4950094;28;20145;-64
2023/03/15 00:09:23;;;;;;;0.95;0.88;;;2.10;99.90;;;;;;4960880;28;20044;-63
2023/03/15 00:11:50;;;;;;;1.65;0.70;;;2.10;99.90;;;;;;4953008;28;20051;-64
2023/03/15 00:14:18;;;;;;;1.92;0.90;;;2.10;99.90;;;;;;4955079;28;20062;-65
2023/03/15 00:16:45;;;;;;;3.55;1.13;;;2.10;99.90;;;;;;4950741;28;20149;-64
2023/03/15 00:19:12;;;;;;;2.90;0.82;;;2.10;99.90;;;;;;4952739;28;20047;-65
2023/03/15 00:21:42;;;;;;;1.58;0.52;;;2.10;99.90;;;;;;4948708;28;20051;-64
2023/03/15 00:24:11;;;;;;;2.20;0.90;;;2.10;99.90;;;;;;4957983;28;20140;-67
2023/03/15 00:26:38;;;;;;;1.88;0.50;;;2.10;99.90;;;;;;4950718;28;20051;-64
2023/03/15 00:29:07;;;;;;;2.22;0.73;;;2.10;99.90;;;;;;4956430;28;20055;-65
2023/03/15 00:31:34;;;;;;;3.70;0.70;;;2.10;99.90;;;;;;4956012;28;20067;-66
2023/03/15 00:34:01;;;;;;;1.40;0.40;;;2.10;99.90;;;;;;4953260;28;20131;-63
2023/03/15 00:36:28;;;;;;;1.27;0.43;;;2.10;99.90;;;;;;4947776;28;20691;-65
2023/03/15 00:38:56;;;;;;;3.45;1.00;;;2.10;99.90;;;;;;4954749;28;20478;-67
2023/03/15 00:41:23;;;;;;;4.18;0.70;;;2.10;99.90;;;;;;4948754;28;20054;-63
2023/03/15 00:43:50;;;;;;;3.58;1.02;;;2.10;99.90;;;;;;4958719;28;20321;-63
2023/03/15 00:46:18;;;;;;;1.50;0.63;;;2.10;99.90;;;;;;4979978;28;20051;-64
2023/03/15 00:48:50;;;;;;;1.95;0.95;;;2.10;99.90;;;;;;4958132;28;20492;-64
2023/03/15 00:51:20;;;;;;;3.00;0.70;;;2.10;99.90;;;;;;4952938;28;20770;-63
2023/03/15 00:53:48;;;;;;;1.38;0.70;;;2.10;99.90;;;;;;4963307;28;20146;-62
2023/03/15 00:56:20;;;;;;;3.97;0.70;;;2.10;99.90;;;;;;4951534;28;20236;-64
2023/03/15 00:58:48;;;;;;;3.20;1.20;;;2.10;99.90;;;;;;4953771;28;20146;-63
2023/03/15 01:01:21;;;;;;;4.20;2.50;;;2.10;99.90;;;;;;4989175;28;20047;-64
2023/03/15 01:03:48;;;;;;;2.80;1.00;;;2.10;99.90;;;;;;4955234;28;20102;-63
2023/03/15 01:06:19;;;;;;;3.63;0.93;;;2.00;99.90;;;;;;4953276;28;20059;-65
2023/03/15 01:08:47;;;;;;;0.50;0.40;;;2.00;99.90;;;;;;4954228;28;20055;-66
2023/03/15 01:11:18;;;;;;;1.35;0.95;;;2.10;99.90;;;;;;4949541;28;20079;-64
2023/03/15 01:13:45;;;;;;;0.68;0.68;;;2.00;99.90;;;;;;4954785;28;20070;-62
2023/03/15 01:16:13;;;;;;;1.42;0.70;;;2.00;99.90;;;;;;4955091;28;20063;-67
2023/03/15 01:18:42;;;;;;;1.60;0.95;;;2.00;99.90;;;;;;4955129;28;20047;-63
2023/03/15 01:21:11;;;;;;;1.65;0.40;;;2.00;99.90;;;;;;4986248;28;20050;-66
2023/03/15 01:23:38;;;;;;;1.23;0.52;;;2.00;99.90;;;;;;4952895;28;20129;-63
2023/03/15 01:26:10;;;;;;;0.80;0.52;;;1.90;99.90;;;;;;4955664;28;20561;-65
2023/03/15 01:28:36;;;;;;;0.57;0.50;;;1.90;99.90;;;;;;4961146;28;20053;-64
2023/03/15 01:31:04;;;;;;;1.15;0.65;;;1.90;99.90;;;;;;4983807;28;20094;-63
2023/03/15 01:33:32;;;;;;;2.65;0.85;;;1.90;99.90;;;;;;4955059;28;20051;-64
2023/03/15 01:36:01;;;;;;;2.10;0.75;;;1.90;99.90;;;;;;4953846;28;20089;-63
2023/03/15 01:38:29;;;;;;;1.50;0.90;;;1.80;99.90;;;;;;4954107;28;20105;-65
2023/03/15 01:40:57;;;;;;;4.20;0.60;;;1.80;99.90;;;;;;4949806;28;20043;-68
2023/03/15 01:43:30;;;;;;;1.50;1.20;;;1.80;99.90;;;;;;4960333;28;20693;-63
2023/03/15 01:46:14;;;;;;;8.68;1.83;;;1.80;99.90;;;;;;4951022;28;20102;-67
2023/03/15 01:48:49;;;;;;;2.25;0.50;;;1.80;99.90;;;;;;4951723;28;20056;-63
2023/03/15 01:51:30;;;;;;;1.85;0.60;;;1.80;99.90;;;;;;4969289;28;20047;-65
2023/03/15 01:54:07;;;;;;;2.65;1.77;;;1.70;99.90;;;;;;4949836;28;20129;-63
2023/03/15 01:56:39;;;;;;;2.53;0.73;;;1.70;99.90;;;;;;4947357;28;20055;-65
2023/03/15 01:59:11;;;;;;;0.70;0.57;;;1.70;99.90;;;;;;4950245;28;20150;-64
2023/03/15 02:01:44;;;;;;;1.80;0.57;;;1.70;99.90;;;;;;4953955;28;20046;-64
2023/03/15 02:04:17;;;;;;;1.60;0.60;;;1.60;99.90;;;;;;4954338;28;20066;-65
2023/03/15 02:06:47;;;;;;;4.25;1.45;;;1.60;99.90;;;;;;4948002;28;20102;-63
2023/03/15 02:09:17;;;;;;;1.13;0.57;;;1.60;99.90;;;;;;4957417;28;20612;-65
2023/03/15 02:11:46;;;;;;;1.23;0.60;;;1.50;99.90;;;;;;4984301;28;20854;-63
2023/03/15 02:14:14;;;;;;;2.47;0.50;;;1.60;99.90;;;;;;4954820;28;20110;-64
2023/03/15 02:16:43;;;;;;;2.92;0.88;;;1.50;99.90;;;;;;4958609;28;20105;-68
2023/03/15 02:19:39;;;;;;;1.15;0.77;;;1.50;99.90;;;;;;4962637;28;20047;-67
2023/03/15 02:22:26;;;;;;;1.33;0.50;;;1.50;99.90;;;;;;4962807;28;20055;-63
2023/03/15 02:25:08;;;;;;;1.17;0.50;;;1.50;99.90;;;;;;4954356;28;20043;-64
2023/03/15 02:27:35;;;;;;;3.40;0.50;;;1.50;99.90;;;;;;4957088;28;20133;-70
2023/03/15 02:30:03;;;;;;;0.95;0.52;;;1.50;99.90;;;;;;4990629;28;20103;-65
2023/03/15 02:32:31;;;;;;;4.78;1.67;;;1.50;99.90;;;;;;4948859;28;20162;-68
2023/03/15 02:34:57;;;;;;;4.85;1.48;;;1.50;99.90;;;;;;4987468;28;20047;-63
2023/03/15 02:37:25;;;;;;;5.05;0.60;;;1.40;99.90;;;;;;4950081;28;20074;-64
2023/03/15 02:39:52;;;;;;;1.75;0.40;;;1.40;99.90;;;;;;4960732;28;20084;-63
2023/03/15 02:42:19;;;;;;;3.35;0.85;;;1.40;99.90;;;;;;4954262;28;20073;-64
2023/03/15 02:44:50;;;;;;;0.82;0.40;;;1.40;99.90;;;;;;4954110;28;20052;-63
2023/03/15 02:47:26;;;;;;;5.05;0.93;;;1.40;99.90;;;;;;4946930;28;21292;-64
2023/03/15 02:49:53;;;;;;;1.50;0.68;;;1.40;99.90;;;;;;4952090;28;20442;-64
2023/03/15 02:52:21;;;;;;;1.92;0.85;;;1.30;99.90;;;;;;4952328;28;20465;-64
2023/03/15 02:54:49;;;;;;;1.92;0.95;;;1.30;99.90;;;;;;4958259;28;20118;-64
2023/03/15 02:57:18;;;;;;;4.90;2.53;;;1.30;99.90;;;;;;4951273;28;20047;-64
2023/03/15 02:59:46;;;;;;;0.57;0.47;;;1.30;99.90;;;;;;4980805;28;20549;-63
2023/03/15 03:02:13;;;;;;;3.10;0.50;;;1.20;99.90;;;;;;4951172;28;20051;-65
2023/03/15 03:04:41;;;;;;;1.88;0.80;;;1.20;99.90;;;;;;4952050;28;20117;-64
2023/03/15 03:07:08;;;;;;;1.40;0.88;;;1.20;99.90;;;;;;4952304;28;20059;-68
2023/03/15 03:09:46;;;;;;;2.28;0.55;;;1.20;99.90;;;;;;4950346;28;20521;-64
2023/03/15 03:12:13;;;;;;;1.85;0.40;;;1.20;99.90;;;;;;4950601;28;20536;-65
2023/03/15 03:14:42;;;;;;;2.45;1.75;;;1.20;99.90;;;;;;4948828;28;20039;-64
2023/03/15 03:17:12;;;;;;;0.63;0.32;;;1.10;99.90;;;;;;4953671;28;20142;-65
2023/03/15 03:19:40;;;;;;;1.60;0.80;;;1.10;99.90;;;;;;4961755;28;20161;-65
2023/03/15 03:22:07;;;;;;;0.90;0.50;;;1.10;99.90;;;;;;4947497;28;20055;-64
2023/03/15 03:24:35;;;;;;;1.33;0.70;;;1.10;99.90;;;;;;4945543;28;20150;-63
2023/03/15 03:27:02;;;;;;;1.30;0.68;;;1.10;99.90;;;;;;4955391;28;20046;-66
2023/03/15 03:29:32;;;;;;;1.92;0.57;;;1.10;99.90;;;;;;4953882;28;20066;-64
2023/03/15 03:32:00;;;;;;;3.33;0.57;;;1.10;99.90;;;;;;4953313;28;20133;-64
2023/03/15 03:34:27;;;;;;;2.03;0.50;;;1.10;99.90;;;;;;4953374;28;20474;-64
2023/03/15 03:36:55;;;;;;;1.60;0.40;;;1.10;99.90;;;;;;4948713;28;20476;-63
2023/03/15 03:39:38;;;;;;;6.55;0.70;;;1.10;99.90;;;;;;4954089;28;20062;-66
2023/03/15 03:42:04;;;;;;;3.05;0.80;;;1.10;99.90;;;;;;4950081;28;20054;-66
2023/03/15 03:44:31;;;;;;;0.85;0.22;;;1.20;99.90;;;;;;4949532;28;20051;-64
2023/03/15 03:46:59;;;;;;;5.15;0.70;;;1.10;99.90;;;;;;4945023;28;20055;-65
2023/03/15 03:49:27;;;;;;;1.58;1.30;;;1.20;99.90;;;;;;4958001;28;20123;-63
2023/03/15 03:51:54;;;;;;;0.40;0.40;;;1.20;99.90;;;;;;4955165;28;20051;-64
2023/03/15 03:54:21;;;;;;;1.92;0.50;;;1.20;99.90;;;;;;4953216;28;20149;-65
2023/03/15 03:56:48;;;;;;;2.78;0.70;;;1.10;99.90;;;;;;4960750;28;20051;-65
2023/03/15 03:59:16;;;;;;;2.10;0.90;;;1.10;99.90;;;;;;4954385;28;20149;-65
2023/03/15 04:01:52;;;;;;;0.95;0.43;;;1.20;99.90;;;;;;4984065;28;20220;-65
2023/03/15 04:04:19;;;;;;;0.68;0.35;;;1.10;99.90;;;;;;4950548;28;20059;-64
2023/03/15 04:06:49;;;;;;;2.47;0.90;;;1.10;99.90;;;;;;4951946;28;20096;-65
2023/03/15 04:09:23;;;;;;;2.92;0.65;;;1.10;99.90;;;;;;4981384;28;20058;-63
2023/03/15 04:11:52;;;;;;;1.48;0.60;;;1.10;99.90;;;;;;4950107;28;20078;-63
2023/03/15 04:14:19;;;;;;;2.75;0.80;;;1.10;99.90;;;;;;4947459;28;20047;-65
2023/03/15 04:16:48;;;;;;;1.38;0.50;;;1.10;99.90;;;;;;4948679;28;20055;-65
2023/03/15 04:19:16;;;;;;;3.80;0.70;;;1.10;99.90;;;;;;4950300;28;20102;-68
2023/03/15 04:21:46;;;;;;;2.08;0.60;;;1.10;99.90;;;;;;4948075;28;20138;-64
2023/03/15 04:24:30;;;;;;;7.38;2.15;;;1.10;99.90;;;;;;4956819;28;20707;-64
2023/03/15 04:27:17;;;;;;;1.17;0.60;;;1.10;99.90;;;;;;4949933;28;20153;-65
2023/03/15 04:30:04;;;;;;;7.47;0.80;;;1.00;99.90;;;;;;4957166;28;20595;-65
2023/03/15 04:32:37;;;;;;;9.30;1.25;;;1.00;99.90;;;;;;4955265;28;20077;-63
2023/03/15 04:35:18;;;;;;;1.80;0.63;;;1.00;99.90;;;;;;4961964;28;20641;-66
2023/03/15 04:37:54;;;;;;;4.50;1.45;;;1.00;99.90;;;;;;4958651;28;20428;-65
2023/03/15 04:40:41;;;;;;;6.72;0.75;;;1.00;99.90;;;;;;4958539;28;20047;-64
2023/03/15 04:43:23;;;;;;;4.20;0.70;;;1.10;99.90;;;;;;4956093;28;20410;-64
2023/03/15 04:46:19;;;;;;;1.73;0.82;;;1.10;99.90;;;;;;4934782;28;20043;-66
2023/03/15 04:49:03;;;;;;;6.60;0.98;;;1.10;99.90;;;;;;4956616;28;20062;-63
2023/03/15 04:51:44;;;;;;;2.00;0.70;;;1.10;99.90;;;;;;4969057;28;20074;-64
2023/03/15 04:54:43;;;;;;;6.32;1.13;;;1.10;99.90;;;;;;4947672;28;20050;-63
2023/03/15 04:57:17;;;;;;;3.30;1.20;;;1.10;99.90;;;;;;4988231;28;20142;-65
2023/03/15 04:59:51;;;;;;;5.03;1.33;;;1.10;99.90;;;;;;4955566;28;20561;-64
2023/03/15 05:02:38;;;;;;;8.18;1.33;;;1.10;99.90;;;;;;4960716;28;20137;-64
2023/03/15 05:05:15;;;;;;;0.40;0.35;;;1.10;99.90;;;;;;4960898;28;20050;-65
2023/03/15 05:08:00;;;;;;;1.17;0.77;;;1.10;99.90;;;;;;4956945;28;20061;-65
2023/03/15 05:10:36;;;;;;;4.68;0.55;;;1.10;99.90;;;;;;4955866;28;20089;-68
2023/03/15 05:13:17;;;;;;;1.83;0.77;;;1.10;99.90;;;;;;4958657;28;20058;-67
2023/03/15 05:16:23;;;;;;;1.13;0.90;;;1.10;99.90;;;;;;4950818;28;20043;-65
2023/03/15 05:18:59;;;;;;;5.10;0.80;;;1.10;99.90;;;;;;4930767;28;20047;-68
2023/03/15 05:21:36;;;;;;;2.65;1.15;;;1.10;99.90;;;;;;4953371;28;20057;-64
2023/03/15 05:24:21;;;;;;;1.25;0.65;;;1.10;99.90;;;;;;4952844;28;20050;-64
2023/03/15 05:26:56;;;;;;;5.40;1.17;;;1.20;99.90;;;;;;4952482;28;20051;-64
2023/03/15 05:29:50;;;;;;;1.13;0.50;;;1.20;99.90;;;;;;4956153;28;20051;-66
2023/03/15 05:32:38;;;;;;;4.15;0.80;;;1.20;99.90;;;;;;4949334;28;21631;-63
2023/03/15 05:35:34;;;;;;;2.50;1.33;;;1.20;99.90;;;;;;4946271;28;20821;-65
2023/03/15 05:38:25;;;;;;;4.43;1.02;;;1.30;99.90;;;;;;4953008;28;20081;-65
2023/03/15 05:41:18;;;;;;;5.30;1.50;;;1.30;99.90;;;;;;4953472;28;20094;-66
2023/03/15 05:43:55;;;;;;;2.90;0.63;;;1.30;99.90;;;;;;4988752;28;20055;-64
2023/03/15 05:46:34;;;;;;;3.05;0.93;;;1.30;99.90;;;;;;4951476;28;20046;-65
2023/03/15 05:49:20;;;;;;;4.53;0.60;;;1.30;99.90;;;;;;4950238;28;20144;-63
2023/03/15 05:51:52;;;;;;;11.07;1.50;;;1.30;99.90;;;;;;4955962;28;20425;-64
2023/03/15 05:54:32;;;;;;;2.08;0.90;;;1.30;99.90;;;;;;4952273;28;20449;-66
2023/03/15 05:57:21;;;;;;;2.08;0.40;;;1.30;99.90;;;;;;4951871;28;20051;-64
2023/03/15 06:00:08;;;;;;;2.13;0.77;;;1.30;99.90;;;;;;4957257;28;20870;-63
2023/03/15 06:02:42;;;;;;;8.55;1.40;;;1.40;99.90;;;;;;4960221;28;20109;-64
2023/03/15 06:05:28;;;;;;;6.55;0.80;;;1.40;99.90;;;;;;4956520;28;20049;-63
2023/03/15 06:07:58;;;;;;;6.43;1.38;;;1.40;99.90;;;;;;4990162;28;20050;-65
2023/03/15 06:10:24;;;;;;;3.17;0.95;;;1.30;99.90;;;;;;4960052;28;20047;-62
2023/03/15 06:12:54;;;;;;;4.60;0.77;;;1.30;99.90;;;;;;4954810;28;20066;-64
2023/03/15 06:15:21;;;;;;;5.80;1.15;;;1.30;99.90;;;;;;4983265;28;20062;-67
2023/03/15 06:17:50;;;;;;;2.65;0.80;;;1.30;99.90;;;;;;4960475;28;20166;-66
2023/03/15 06:20:17;;;;;;;3.58;0.98;;;1.30;99.90;;;;;;4954411;28;20046;-68
2023/03/15 06:22:44;;;;;;;3.65;0.85;;;1.30;99.90;;;;;;4959863;28;20055;-67
2023/03/15 06:25:24;;;;;;;3.50;1.25;;;1.40;99.90;;;;;;4969473;28;20082;-63
2023/03/15 06:27:51;;;;;;;6.65;1.02;;;1.40;99.90;;;;;;4954388;28;20524;-64
2023/03/15 06:30:19;;;;;;;3.95;1.02;;;1.40;99.90;;;;;;4983370;28;20047;-64
2023/03/15 06:32:49;;;;;;;;;;;1.50;99.90;;;;;;4957810;28;20058;-64
2023/03/15 06:35:16;;;;;;;4.05;1.02;;;1.50;99.90;;;;;;4953439;28;19957;-64
2023/03/15 06:37:43;;;;;;;5.93;2.30;;;1.50;99.90;;;;;;4958938;28;20153;-64
2023/03/15 06:40:11;;;;;;;16.02;2.38;;;1.50;99.90;;;;;;4958195;28;20142;-64
2023/03/15 06:42:40;;;;;;;13.60;2.00;;;1.60;99.90;;;;;;4951927;28;20094;-64
2023/03/15 06:45:10;;;;;;;5.63;1.33;;;1.60;99.90;;;;;;4956395;28;20057;-66
2023/03/15 06:47:37;;;;;;;7.82;2.13;;;1.60;99.90;;;;;;4952377;28;20085;-64
2023/03/15 06:50:05;;;;;;;7.63;1.35;;;1.60;99.90;;;;;;4952447;28;20068;-67
2023/03/15 06:52:32;;;;;;;10.27;1.60;;;1.60;99.90;;;;;;4948778;28;20047;-67
2023/03/15 06:54:59;;;;;;;5.38;0.82;;;1.70;99.90;;;;;;4956519;28;20489;-64
2023/03/15 06:57:27;;;;;;;4.47;1.10;;;1.70;99.90;;;;;;4956611;28;20055;-65
2023/03/15 06:59:54;;;;;;;7.75;2.05;;;1.70;99.90;;;;;;4955264;28;20062;-65
2023/03/15 07:02:21;;;;;;;7.38;1.33;;;1.80;99.90;;;;;;4959268;28;20048;-64
2023/03/15 07:04:48;;;;;;;3.95;0.95;;;1.80;99.90;;;;;;4956472;28;20058;-68
2023/03/15 07:07:15;;;;;;;8.13;0.90;;;1.80;99.90;;;;;;4957344;28;20114;-68
2023/03/15 07:09:42;;;;;;;4.93;0.98;;;1.80;99.90;;;;;;4954993;28;20078;-66
2023/03/15 07:12:10;;;;;;;8.85;1.33;;;1.80;99.90;;;;;;4954383;28;20484;-63
2023/03/15 07:14:37;;;;;;;9.27;1.25;;;1.80;99.90;;;;;;4953523;28;20055;-64
2023/03/15 07:17:04;;;;;;;4.88;1.55;;;1.80;99.90;;;;;;4957565;28;20133;-65
2023/03/15 07:19:31;;;;;;;5.38;1.33;;;1.80;99.90;;;;;;4955639;28;20090;-68
2023/03/15 07:21:58;;;;;;;5.57;1.42;;;1.90;99.90;;;;;;4952586;28;20142;-64
2023/03/15 07:24:26;;;;;;;10.43;1.55;;;1.90;99.90;;;;;;4952584;28;20058;-63
2023/03/15 07:26:55;;;;;;;5.07;1.35;;;1.90;99.90;;;;;;4949144;28;20061;-66
2023/03/15 07:29:23;;;;;;;7.30;1.00;;;1.90;99.90;;;;;;4953171;28;20066;-68
2023/03/15 07:31:50;;;;;;;6.68;1.20;;;1.90;99.90;;;;;;4955942;28;20054;-64
2023/03/15 07:34:17;;;;;;;13.45;1.15;;;2.00;99.90;;;;;;4951485;28;20066;-64
2023/03/15 07:36:44;;;;;;;7.63;1.02;;;2.10;99.90;;;;;;4955478;28;20134;-69
2023/03/15 07:39:11;;;;;;;6.63;1.65;;;2.10;99.90;;;;;;4958485;28;20050;-65
2023/03/15 07:41:38;;;;;;;6.15;2.25;;;2.10;99.90;;;;;;4955505;28;20177;-66
2023/03/15 07:44:13;;;;;;;6.20;2.00;;;2.10;99.90;;;;;;4959301;28;20134;-64
2023/03/15 07:46:40;;;;;;;6.18;1.60;;;2.10;99.90;;;;;;4954208;28;20055;-64
2023/03/15 07:49:07;;;;;;;9.63;1.35;;;2.20;99.90;;;;;;4951505;28;20061;-63
2023/03/15 07:51:34;;;;;;;6.95;1.83;;;2.20;99.90;;;;;;4955521;28;20118;-64
2023/03/15 07:54:01;;;;;;;8.43;1.45;;;2.20;99.90;;;;;;4953644;28;20055;-67
2023/03/15 07:56:27;;;;;;;12.25;2.67;;;2.20;99.90;;;;;;4953502;28;20127;-65
2023/03/15 07:58:54;;;;;;;10.10;1.23;;;2.30;99.90;;;;;;4964560;28;20058;-65
2023/03/15 08:01:21;;;;;;;9.27;1.13;;;2.20;99.90;;;;;;4958999;28;20129;-64
2023/03/15 08:03:48;;;;;;;10.88;2.08;;;2.30;99.90;;;;;;4958059;28;20061;-65
2023/03/15 08:06:15;;;;;;;7.72;1.88;;;2.30;99.90;;;;;;4954919;28;20056;-64
2023/03/15 08:08:41;;;;;;;6.40;1.63;;;2.40;99.90;;;;;;4951785;28;20404;-64
2023/03/15 08:11:09;;;;;;;6.32;1.30;;;2.40;99.90;;;;;;4959535;28;20053;-64
2023/03/15 08:13:36;;;;;;;5.32;0.93;;;2.50;99.90;;;;;;4954284;28;20142;-65
2023/03/15 08:16:03;;;;;;;6.57;1.20;;;2.50;99.90;;;;;;4957427;28;20540;-64
2023/03/15 08:18:30;;;;;;;6.25;1.50;;;2.50;99.90;;;;;;4957777;28;20062;-65
2023/03/15 08:20:58;;;;;;;10.70;1.80;;;2.50;99.90;;;;;;4958033;28;20145;-66
2023/03/15 08:23:25;;;;;;;9.20;1.58;;;2.50;99.90;;;;;;4952678;28;20088;-68
2023/03/15 08:25:51;;;;;;;7.88;1.75;;;2.60;99.90;;;;;;4956734;28;20454;-66
2023/03/15 08:28:18;;;;;;;9.85;2.15;;;2.60;99.90;;;;;;4954558;28;20158;-64
2023/03/15 08:30:45;;;;;;;10.75;1.40;;;2.60;99.90;;;;;;4957240;28;20050;-64
2023/03/15 08:33:12;;;;;;;6.28;1.55;;;2.60;99.90;;;;;;4955283;28;20484;-64
2023/03/15 08:35:40;;;;;;;14.02;2.10;;;2.60;99.90;;;;;;4955242;28;20665;-63
2023/03/15 08:38:08;;;;;;;6.97;1.50;;;2.60;99.90;;;;;;4956760;28;20413;-63
2023/03/15 08:40:35;;;;;;;11.98;4.18;;;2.60;99.90;;;;;;4955112;28;20078;-63
2023/03/15 08:43:03;;;;;;;8.23;2.10;;;2.50;99.90;;;;;;4954637;28;20508;-64
2023/03/15 08:45:30;;;;;;;6.18;1.75;;;2.50;99.90;;;;;;4953735;28;20046;-64
2023/03/15 08:48:08;;;;;;;5.53;2.03;;;2.60;99.90;;;;;;4960546;28;20051;-63
2023/03/15 08:50:35;;;;;;;3.85;1.48;;;2.60;99.90;;;;;;4952274;28;21164;-63
2023/03/15 08:53:02;;;;;;;7.38;1.52;;;2.60;99.90;;;;;;4958219;28;20055;-64
2023/03/15 08:55:29;;;;;;;11.95;1.63;;;2.60;99.90;;;;;;4955177;28;20039;-63
2023/03/15 08:57:56;;;;;;;8.43;1.85;;;2.70;99.90;;;;;;4952531;28;20058;-64
2023/03/15 09:00:23;;;;;;;8.25;2.25;;;2.70;99.90;;;;;;4950563;28;20047;-65
2023/03/15 09:02:54;;;;;;;15.82;2.28;;;2.80;99.90;;;;;;4963085;28;20071;-63
2023/03/15 09:05:22;;;;;;;12.05;2.53;;;2.80;99.90;;;;;;4952391;28;20908;-64
2023/03/15 09:07:51;;;;;;;10.07;1.40;;;2.80;99.90;;;;;;4954024;28;20065;-66
2023/03/15 09:10:19;;;;;;;18.08;1.95;;;2.80;99.90;;;;;;4951846;28;20134;-65
2023/03/15 09:12:48;;;;;;;5.30;2.58;;;2.80;99.90;;;;;;4957228;28;20047;-64
2023/03/15 09:15:16;;;;;;;8.13;1.50;;;2.80;99.90;;;;;;4954816;28;20088;-64
2023/03/15 09:17:43;;;;;;;7.57;1.40;;;2.70;99.90;;;;;;4956651;28;20130;-68
2023/03/15 09:20:13;;;;;;;4.85;1.20;;;2.70;99.90;;;;;;4951677;28;20053;-66
2023/03/15 09:22:40;;;;;;;;;;;2.80;99.90;;;;;;4954895;28;20094;-63
2023/03/15 09:25:08;;;;;;;5.55;1.48;;;2.70;99.90;;;;;;4957970;28;19933;-65
2023/03/15 09:27:36;;;;;;;9.48;1.58;;;2.70;99.90;;;;;;4960411;28;20524;-65
2023/03/15 09:30:03;;;;;;;4.13;1.38;;;2.80;99.90;;;;;;4957056;28;20059;-67
2023/03/15 09:32:34;;;;;;;9.80;1.58;;;2.80;99.90;;;;;;4954711;28;20142;-64
2023/03/15 09:35:07;;;;;;;11.55;2.00;;;2.90;99.90;;;;;;4950461;28;20126;-65
2023/03/15 09:37:34;;;;;;;9.10;2.40;;;2.90;99.90;;;;;;4953099;28;20055;-66
2023/03/15 09:40:03;;;;;;;8.88;1.70;;;2.90;99.90;;;;;;4951623;28;20144;-64
2023/03/15 09:42:44;;;;;;;7.07;1.98;;;2.90;99.90;;;;;;4950890;28;20049;-67
2023/03/15 09:45:26;;;;;;;9.05;1.95;;;2.80;99.90;;;;;;4954495;28;20054;-65
2023/03/15 09:48:13;;;;;;;4.20;1.40;;;2.90;99.90;;;;;;4952845;28;20111;-63
2023/03/15 09:50:52;;;;;;;6.38;1.83;;;2.90;99.90;;;;;;4951267;28;20057;-65
2023/03/15 09:53:49;;;;;;;6.43;1.35;;;3.00;99.90;;;;;;4952831;28;20051;-63
2023/03/15 09:56:31;;;;;;;11.75;2.20;;;3.00;99.90;;;;;;4955604;28;20043;-63
2023/03/15 09:59:00;;;;;;;10.23;1.50;;;3.00;99.90;;;;;;4952465;28;20051;-64
2023/03/15 10:01:35;;;;;;;5.20;3.53;;;3.00;99.90;;;;;;4959290;28;20046;-64
2023/03/15 10:04:12;;;;;;;12.35;2.08;;;3.10;99.90;;;;;;4959521;28;20047;-65
2023/03/15 10:06:46;;;;;;;11.95;2.28;;;3.30;99.90;;;;;;4950134;28;20181;-64
2023/03/15 10:09:18;;;;;;;8.48;1.98;;;3.20;99.90;;;;;;4951422;28;20081;-67
2023/03/15 10:11:53;;;;;;;8.10;2.95;;;3.30;99.90;;;;;;4952098;28;20146;-63
2023/03/15 10:14:29;;;;;;;9.52;2.42;;;3.40;99.90;;;;;;4951236;28;20581;-67
2023/03/15 10:16:56;;;;;;;25.27;2.22;;;3.40;99.90;;;;;;4955519;28;20047;-63
2023/03/15 10:19:28;;;;;;;11.73;2.20;;;3.50;99.90;;;;;;4951049;28;20515;-66
2023/03/15 10:22:32;;;;;;;5.38;2.20;;;3.60;99.90;;;;;;4956700;28;20133;-63
2023/03/15 10:25:18;;;;;;;8.38;2.60;;;3.70;99.90;;;;;;4950010;28;20050;-66
2023/03/15 10:27:47;;;;;;;10.18;2.92;;;3.60;99.90;;;;;;4960165;28;20417;-66
2023/03/15 10:30:16;;;;;;;9.20;2.13;;;3.70;99.90;;;;;;4951731;28;20053;-68
2023/03/15 10:32:46;;;;;;;12.98;1.67;;;3.80;99.90;;;;;;4953166;28;20109;-64
2023/03/15 10:35:16;;;;;;;11.18;2.13;;;3.70;99.90;;;;;;4953277;28;20061;-63
2023/03/15 10:37:44;;;;;;;15.15;2.92;;;3.70;99.90;;;;;;4959024;28;20047;-63
2023/03/15 10:40:16;;;;;;;6.72;1.75;;;3.90;99.90;;;;;;4957749;28;20483;-66
2023/03/15 10:42:45;;;;;;;10.82;3.25;;;3.90;99.90;;;;;;4950126;28;20474;-65
2023/03/15 10:45:21;;;;;;;8.10;2.25;;;3.90;99.90;;;;;;4955673;28;20058;-65
2023/03/15 10:47:49;;;;;;;9.50;1.95;;;4.10;99.90;;;;;;4958156;28;20477;-63
2023/03/15 10:50:27;;;;;;;8.07;2.40;;;4.10;99.90;;;;;;4950344;28;20069;-64
2023/03/15 10:52:56;;;;;;;11.68;2.25;;;4.10;99.90;;;;;;4955373;28;20054;-64
2023/03/15 10:55:34;;;;;;;9.85;2.97;;;4.00;99.90;;;;;;4951074;28;20141;-65
2023/03/15 10:58:30;;;;;;;8.65;3.67;;;4.00;99.90;;;;;;4959463;28;20101;-64
2023/03/15 11:01:08;;;;;;;7.43;1.38;;;4.10;99.90;;;;;;4944786;28;20059;-67
2023/03/15 11:03:36;;;;;;;7.05;1.90;;;4.10;99.90;;;;;;4960998;28;20114;-63
2023/03/15 11:06:20;;;;;;;9.88;1.50;;;4.10;99.90;;;;;;4958202;28;20701;-64
2023/03/15 11:08:46;;;;;;;7.72;2.03;;;4.10;99.90;;;;;;4952726;28;20051;-68
2023/03/15 11:11:13;;;;;;;10.43;1.67;;;4.20;99.90;;;;;;4959594;28;20042;-67
2023/03/15 11:13:41;;;;;;;4.65;1.60;;;4.20;99.90;;;;;;4958715;28;20158;-65
2023/03/15 11:16:14;;;;;;;7.93;1.40;;;4.30;99.90;;;;;;4957492;28;20141;-68
2023/03/15 11:18:58;;;;;;;9.90;2.33;;;4.30;99.90;;;;;;4952658;28;20082;-65
2023/03/15 11:21:32;;;;;;;15.27;2.55;;;4.40;99.90;;;;;;4956260;28;20152;-65
2023/03/15 11:24:02;;;;;;;5.90;1.15;;;4.40;99.90;;;;;;4955643;28;20509;-63
2023/03/15 11:26:34;;;;;;;7.28;0.90;;;4.40;99.90;;;;;;4951673;28;20055;-64
2023/03/15 11:29:14;;;;;;;13.43;1.20;;;4.40;99.90;;;;;;4955711;28;20105;-66
2023/03/15 11:31:41;;;;;;;9.63;3.22;;;4.40;99.90;;;;;;4956652;28;20046;-64
2023/03/15 11:34:20;;;;;;;5.35;1.27;;;4.40;99.90;;;;;;4955965;28;20493;-64
2023/03/15 11:36:52;;;;;;;3.67;0.95;;;4.50;99.90;;;;;;4956701;28;20055;-65
2023/03/15 11:39:51;;;;;;;7.28;2.28;;;4.40;99.90;;;;;;4953282;28;20578;-64
2023/03/15 11:42:37;;;;;;;5.90;1.85;;;4.50;99.90;;;;;;4956921;28;20061;-68
2023/03/15 11:45:17;;;;;;;8.30;2.78;;;4.60;99.90;;;;;;4958028;28;20074;-63
2023/03/15 11:47:55;;;;;;;4.97;1.35;;;4.50;99.90;;;;;;4952679;28;20078;-68
2023/03/15 11:50:22;;;;;;;11.15;1.58;;;4.50;99.90;;;;;;4950499;28;20065;-63
2023/03/15 11:52:50;;;;;;;6.85;1.60;;;4.50;99.90;;;;;;4951855;28;20047;-66
2023/03/15 11:55:25;;;;;;;9.70;1.85;;;4.50;99.90;;;;;;4950204;28;20138;-64
2023/03/15 11:57:53;;;;;;;10.55;1.52;;;4.60;99.90;;;;;;4950352;28;20105;-63
2023/03/15 12:00:46;;;;;;;11.45;1.88;;;4.60;99.90;;;;;;4953759;28;20051;-63
2023/03/15 12:03:42;;;;;;;4.88;0.95;;;4.70;99.90;;;;;;4950651;28;20541;-64
2023/03/15 12:06:14;;;;;;;14.45;2.35;;;4.80;99.90;;;;;;4950049;28;20055;-65
2023/03/15 12:08:45;;;;;;;10.27;1.63;;;4.80;99.90;;;;;;4947579;28;20047;-65
2023/03/15 12:11:32;;;;;;;19.67;2.28;;;4.90;99.90;;;;;;4947659;28;20505;-65
2023/03/15 12:13:59;;;;;;;12.48;1.63;;;4.90;99.90;;;;;;4954780;28;20049;-63
2023/03/15 12:16:29;;;;;;;14.63;2.08;;;5.00;99.90;;;;;;4947968;28;20083;-66
2023/03/15 12:19:01;;;;;;;8.82;1.13;;;5.00;99.90;;;;;;4951902;28;20047;-64
2023/03/15 12:21:37;;;;;;;8.38;2.00;;;5.00;99.90;;;;;;4948113;28;20047;-63
2023/03/15 12:24:19;;;;;;;7.53;1.55;;;5.00;99.90;;;;;;4956159;28;20055;-63
2023/03/15 12:27:00;;;;;;;12.38;2.05;;;4.90;99.90;;;;;;4949080;28;20062;-65
2023/03/15 12:29:28;;;;;;;;;;;5.00;99.90;;;;;;4951957;28;20055;-65
2023/03/15 12:32:10;;;;;;;12.27;1.95;;;5.00;99.90;;;;;;4953838;28;19933;-63
2023/03/15 12:34:51;;;;;;;6.72;1.58;;;5.10;99.90;;;;;;4956304;28;20054;-64
2023/03/15 12:37:39;;;;;;;11.90;2.85;;;5.20;99.90;;;;;;4948859;28;20051;-66
2023/03/15 12:40:15;;;;;;;11.65;1.60;;;5.30;99.90;;;;;;4953683;28;20414;-65
2023/03/15 12:42:42;;;;;;;10.77;1.80;;;5.50;99.90;;;;;;4954814;28;20063;-65
2023/03/15 12:45:15;;;;;;;12.77;2.25;;;5.40;99.90;;;;;;4956236;28;20051;-61
2023/03/15 12:48:05;;;;;;;6.35;1.40;;;5.40;99.90;;;;;;4956056;28;20098;-62
2023/03/15 12:50:38;;;;;;;9.53;2.77;;;5.20;99.90;;;;;;4946534;28;20106;-62
2023/03/15 12:53:21;;;;;;;6.18;2.35;;;5.30;99.90;;;;;;4954035;28;20296;-62
2023/03/15 12:55:50;;;;;;;5.47;1.33;;;5.30;99.90;;;;;;4953875;28;20080;-62
2023/03/15 12:58:35;;;;;;;7.25;2.25;;;5.40;99.90;;;;;;4958845;28;20072;-62
2023/03/15 13:01:06;;;;;;;7.43;3.03;;;5.40;99.90;;;;;;4950949;28;20556;-62
2023/03/15 13:03:34;;;;;;;;;;;5.30;99.90;;;;;;4956950;28;20493;-62
2023/03/15 13:06:26;;;;;;;9.82;2.45;;;5.30;99.90;;;;;;4954499;28;19927;-62
2023/03/15 13:08:59;;;;;;;3.17;1.40;;;5.20;99.90;;;;;;4952908;28;20062;-62
2023/03/15 13:11:32;;;;;;;12.85;2.40;;;5.30;99.90;;;;;;4954873;28;20767;-62
2023/03/15 13:14:28;;;;;;;10.82;2.60;;;5.40;99.90;;;;;;4953192;28;20057;-63
2023/03/15 13:17:20;;;;;;;13.90;3.38;;;5.60;99.90;;;;;;4949372;28;20051;-61
2023/03/15 13:20:10;;;;;;;11.07;3.08;;;5.60;99.90;;;;;;4957584;28;20055;-61
2023/03/15 13:23:08;;;;;;;11.70;2.30;;;5.60;99.90;;;;;;4954094;28;20051;-62
2023/03/15 13:26:10;;;;;;;10.23;1.95;;;5.70;99.90;;;;;;4950947;28;20315;-66